8AL3 weather

Fricks Field Airport
Boaz, Alabama, United States

Public forecast

Using degrees Fahrenheit for public forecast. Weather courtesy of forecast.io.

Closest aviation weather report (METAR) to Fricks Field Airport

Closest report is Albertville Regional Airport/Thomas J Brumlik Field, 9.8 nm (18.2 km) WNW. Retrieved UTC (0 seconds ago):

Closest aviation forecast (TAF) to Fricks Field Airport

Closest forecast is Talladega Municipal Airport, 34.4 nm (63.7 km) S. Retrieved 2019/10/19 12:22 UTC (4 hours ago):

TAF KASN 191120Z 1912/2012 06011KT P6SM -RA OVC025 FM191500 05012KT 5SM -RA BR OVC015 FM192100 04004KT P6SM OVC010